Time;durP1;ratioP1;P1;durP2;ratioP2;P2;SDS_P1;SDS_P2;PMS_P1;PMS_P2;Temp;Humidity;BMP_temperature;BMP_pressure;BME280_temperature;BME280_humidity;BME280_pressure;Samples;Min_cycle;Max_cycle;Signal;HPM_P1;HPM_P2
2023/04/29 00:00:26;;;;;;;32.30;29.40;;;;;;;;;;5084993;28;20509;-81
2023/04/29 00:02:53;;;;;;;34.43;31.23;;;;;;;;;;5085736;28;20446;-81
2023/04/29 00:05:20;;;;;;;35.03;31.90;;;;;;;;;;5085574;28;20466;-81
2023/04/29 00:07:47;;;;;;;34.27;30.97;;;;;;;;;;5085259;28;20450;-81
2023/04/29 00:10:14;;;;;;;35.90;32.30;;;;;;;;;;5085437;28;20453;-82
2023/04/29 00:12:43;;;;;;;32.57;29.47;;;;;;;;;;5086143;28;20454;-81
2023/04/29 00:15:11;;;;;;;33.87;30.57;;;;;;;;;;5085780;28;20897;-81
2023/04/29 00:17:38;;;;;;;34.90;31.30;;;;;;;;;;5085359;28;20481;-81
2023/04/29 00:20:06;;;;;;;38.53;34.97;;;;;;;;;;5087292;28;20444;-82
2023/04/29 00:22:33;;;;;;;32.20;29.30;;;;;;;;;;5085309;28;20420;-82
2023/04/29 00:25:00;;;;;;;34.30;31.03;;;;;;;;;;5085638;28;20467;-81
2023/04/29 00:27:28;;;;;;;35.47;32.10;;;;;;;;;;5084501;28;20437;-80
2023/04/29 00:29:57;;;;;;;34.87;31.67;;;;;;;;;;5085178;28;20452;-81
2023/04/29 00:32:24;;;;;;;35.77;32.17;;;;;;;;;;5085462;28;20462;-82
2023/04/29 00:34:51;;;;;;;38.53;34.73;;;;;;;;;;5084566;28;20481;-81
2023/04/29 00:37:18;;;;;;;35.03;31.77;;;;;;;;;;5084796;28;20452;-81
2023/04/29 00:39:45;;;;;;;34.20;30.80;;;;;;;;;;5086249;28;20475;-81
2023/04/29 00:42:12;;;;;;;34.60;31.20;;;;;;;;;;5085010;28;20480;-81
2023/04/29 00:44:39;;;;;;;34.07;30.67;;;;;;;;;;5084791;28;20436;-80
2023/04/29 00:47:10;;;;;;;33.77;30.80;;;;;;;;;;5086321;28;20457;-81
2023/04/29 00:49:37;;;;;;;32.93;29.77;;;;;;;;;;5088717;28;20489;-81
2023/04/29 00:52:06;;;;;;;38.00;34.43;;;;;;;;;;5090302;28;20489;-81
2023/04/29 00:54:34;;;;;;;36.87;33.27;;;;;;;;;;5090672;28;20473;-80
2023/04/29 00:57:02;;;;;;;38.83;35.03;;;;;;;;;;5093455;28;20441;-81
2023/04/29 00:59:31;;;;;;;37.00;33.37;;;;;;;;;;5092605;28;20444;-81
2023/04/29 01:01:59;;;;;;;40.33;36.10;;;;;;;;;;5094694;28;20480;-81
2023/04/29 01:04:27;;;;;;;40.57;36.07;;;;;;;;;;5094139;28;20517;-82
2023/04/29 01:06:59;;;;;;;38.57;34.37;;;;;;;;;;5095243;28;20454;-80
2023/04/29 01:09:40;;;;;;;40.83;36.20;;;;;;;;;;5098109;28;20456;-79
2023/04/29 01:12:12;;;;;;;38.23;34.13;;;;;;;;;;5098289;28;20423;-81
2023/04/29 01:14:40;;;;;;;40.90;36.60;;;;;;;;;;5097277;28;20524;-82
2023/04/29 01:17:10;;;;;;;37.10;33.17;;;;;;;;;;5096686;28;20532;-81
2023/04/29 01:19:48;;;;;;;37.20;33.20;;;;;;;;;;5097128;28;20511;-81
2023/04/29 01:22:16;;;;;;;41.47;37.00;;;;;;;;;;5095498;28;20388;-81
2023/04/29 01:24:45;;;;;;;41.33;37.13;;;;;;;;;;5089566;28;20439;-80
2023/04/29 01:27:19;;;;;;;41.10;36.47;;;;;;;;;;5087223;28;20821;-80
2023/04/29 01:29:50;;;;;;;42.63;36.03;;;;;;;;;;5087865;28;20461;-82
2023/04/29 01:32:19;;;;;;;44.13;37.57;;;;;;;;;;5088121;28;20479;-83
2023/04/29 01:34:50;;;;;;;42.90;38.20;;;;;;;;;;5088000;28;20466;-80
2023/04/29 01:37:19;;;;;;;44.90;38.93;;;;;;;;;;5087531;28;20474;-81
2023/04/29 01:39:53;;;;;;;46.37;39.97;;;;;;;;;;5086807;28;20533;-81
2023/04/29 01:42:24;;;;;;;44.67;39.40;;;;;;;;;;5086939;28;20827;-81
2023/04/29 01:44:51;;;;;;;47.73;39.47;;;;;;;;;;5087092;28;20405;-81
2023/04/29 01:47:19;;;;;;;46.87;37.67;;;;;;;;;;5085942;28;20439;-80
2023/04/29 01:49:46;;;;;;;53.50;41.60;;;;;;;;;;5085947;28;20584;-81
2023/04/29 01:52:13;;;;;;;54.40;40.73;;;;;;;;;;5086435;28;20492;-80
2023/04/29 01:54:40;;;;;;;55.23;41.43;;;;;;;;;;5086264;28;20482;-80
2023/04/29 01:57:09;;;;;;;45.43;34.60;;;;;;;;;;5086288;28;20470;-80
2023/04/29 01:59:36;;;;;;;47.73;37.07;;;;;;;;;;5086200;28;20539;-81
2023/04/29 02:02:03;;;;;;;51.03;39.73;;;;;;;;;;5089765;28;20411;-81
2023/04/29 02:04:32;;;;;;;39.97;33.90;;;;;;;;;;5090031;28;20454;-82
2023/04/29 02:07:00;;;;;;;45.93;34.70;;;;;;;;;;5088755;28;20421;-81
2023/04/29 02:09:27;;;;;;;47.87;38.93;;;;;;;;;;5088889;28;20528;-82
2023/04/29 02:11:54;;;;;;;51.77;38.70;;;;;;;;;;5088262;28;20527;-81
2023/04/29 02:14:23;;;;;;;57.43;42.50;;;;;;;;;;5086167;28;20442;-82
2023/04/29 02:16:50;;;;;;;49.20;37.97;;;;;;;;;;5084371;28;20458;-81
2023/04/29 02:19:17;;;;;;;49.33;39.10;;;;;;;;;;5085412;28;20470;-82
2023/04/29 02:21:44;;;;;;;45.23;36.53;;;;;;;;;;5087738;28;20453;-82
2023/04/29 02:24:11;;;;;;;44.70;38.20;;;;;;;;;;5087972;28;20495;-82
2023/04/29 02:26:38;;;;;;;50.27;38.73;;;;;;;;;;5086307;28;20469;-82
2023/04/29 02:29:05;;;;;;;58.90;41.90;;;;;;;;;;5087311;28;20445;-82
2023/04/29 02:31:34;;;;;;;49.27;36.87;;;;;;;;;;5087294;28;20473;-81
2023/04/29 02:34:01;;;;;;;56.63;40.40;;;;;;;;;;5086721;28;20480;-82
2023/04/29 02:36:28;;;;;;;52.67;37.50;;;;;;;;;;5085628;28;20576;-80
2023/04/29 02:38:55;;;;;;;47.07;34.47;;;;;;;;;;5086057;28;20477;-81
2023/04/29 02:41:24;;;;;;;36.33;32.37;;;;;;;;;;5085542;28;20446;-82
2023/04/29 02:43:51;;;;;;;40.33;33.90;;;;;;;;;;5084977;28;20431;-81
2023/04/29 02:46:19;;;;;;;39.80;34.97;;;;;;;;;;5084700;28;20970;-81
2023/04/29 02:48:47;;;;;;;40.87;34.33;;;;;;;;;;5085703;28;20469;-81
2023/04/29 02:51:15;;;;;;;35.43;31.50;;;;;;;;;;5085908;28;20449;-81
2023/04/29 02:53:42;;;;;;;32.97;29.43;;;;;;;;;;5085829;28;20428;-81
2023/04/29 02:56:10;;;;;;;31.90;28.10;;;;;;;;;;5085073;28;20457;-82
2023/04/29 02:58:37;;;;;;;40.97;35.33;;;;;;;;;;5084811;28;20474;-81
2023/04/29 03:01:04;;;;;;;37.27;32.77;;;;;;;;;;5085001;28;20528;-82
2023/04/29 03:03:31;;;;;;;32.97;29.83;;;;;;;;;;5086709;28;20921;-82
2023/04/29 03:06:00;;;;;;;41.30;35.33;;;;;;;;;;5088632;28;20445;-82
2023/04/29 03:08:27;;;;;;;38.87;34.83;;;;;;;;;;5087719;28;20440;-81
2023/04/29 03:10:54;;;;;;;47.43;38.10;;;;;;;;;;5087158;28;20445;-82
2023/04/29 03:13:21;;;;;;;42.30;37.90;;;;;;;;;;5083697;28;20434;-82
2023/04/29 03:15:48;;;;;;;38.67;32.60;;;;;;;;;;5083441;28;20432;-82
2023/04/29 03:18:15;;;;;;;49.87;39.23;;;;;;;;;;5081730;28;20489;-82
2023/04/29 03:20:42;;;;;;;39.10;35.20;;;;;;;;;;5082250;28;20455;-82
2023/04/29 03:23:11;;;;;;;40.70;35.07;;;;;;;;;;5082278;28;20470;-82
2023/04/29 03:25:38;;;;;;;45.67;37.60;;;;;;;;;;5081472;28;20536;-81
2023/04/29 03:28:05;;;;;;;34.23;30.73;;;;;;;;;;5081915;28;20781;-81
2023/04/29 03:30:32;;;;;;;46.73;39.13;;;;;;;;;;5082141;28;20545;-82
2023/04/29 03:32:59;;;;;;;48.73;41.30;;;;;;;;;;5083361;28;20761;-81
2023/04/29 03:35:26;;;;;;;44.93;39.63;;;;;;;;;;5082308;28;20983;-81
2023/04/29 03:37:53;;;;;;;42.30;37.87;;;;;;;;;;5081255;28;20478;-82
2023/04/29 03:40:22;;;;;;;46.30;38.10;;;;;;;;;;5080793;28;20492;-81
2023/04/29 03:42:50;;;;;;;40.33;36.13;;;;;;;;;;5079588;28;20515;-81
2023/04/29 03:45:17;;;;;;;42.50;38.10;;;;;;;;;;5079934;28;20441;-82
2023/04/29 03:47:44;;;;;;;43.70;38.97;;;;;;;;;;5078945;28;20446;-82
2023/04/29 03:50:12;;;;;;;42.83;38.70;;;;;;;;;;5079462;28;20531;-80
2023/04/29 03:52:39;;;;;;;41.57;37.10;;;;;;;;;;5079618;28;20424;-81
2023/04/29 03:55:06;;;;;;;39.97;35.90;;;;;;;;;;5079052;28;20896;-81
2023/04/29 03:57:34;;;;;;;41.00;36.80;;;;;;;;;;5079241;28;20529;-81
2023/04/29 04:00:01;;;;;;;38.53;34.50;;;;;;;;;;5078892;28;20903;-83
2023/04/29 04:02:28;;;;;;;41.40;37.20;;;;;;;;;;5079788;28;20446;-82
2023/04/29 04:04:55;;;;;;;41.00;36.70;;;;;;;;;;5079690;28;20823;-82
2023/04/29 04:07:22;;;;;;;44.10;39.70;;;;;;;;;;5079464;28;20453;-82
2023/04/29 04:09:49;;;;;;;39.33;35.87;;;;;;;;;;5078882;28;20444;-82
2023/04/29 04:12:16;;;;;;;41.73;37.70;;;;;;;;;;5078825;28;20532;-82
2023/04/29 04:14:45;;;;;;;42.37;38.07;;;;;;;;;;5078295;28;20598;-81
2023/04/29 04:17:12;;;;;;;43.77;39.07;;;;;;;;;;5078758;28;20864;-82
2023/04/29 04:19:39;;;;;;;43.20;38.77;;;;;;;;;;5078629;28;20436;-81
2023/04/29 04:22:06;;;;;;;43.47;39.17;;;;;;;;;;5080581;28;20507;-84
2023/04/29 04:24:33;;;;;;;42.17;37.87;;;;;;;;;;5082516;28;20455;-81
2023/04/29 04:27:00;;;;;;;42.20;38.30;;;;;;;;;;5082404;28;20453;-82
2023/04/29 04:29:27;;;;;;;44.50;39.90;;;;;;;;;;5081907;28;20453;-82
2023/04/29 04:31:56;;;;;;;46.00;41.17;;;;;;;;;;5082561;28;20454;-82
2023/04/29 04:34:22;;;;;;;46.73;41.77;;;;;;;;;;5081918;28;20487;-78
2023/04/29 04:36:50;;;;;;;42.63;38.60;;;;;;;;;;5080781;28;20914;-79
2023/04/29 04:39:17;;;;;;;45.50;41.23;;;;;;;;;;5081307;28;20596;-79
2023/04/29 04:41:44;;;;;;;47.93;43.00;;;;;;;;;;5081484;28;20439;-79
2023/04/29 04:44:12;;;;;;;46.03;41.40;;;;;;;;;;5081289;28;20441;-79
2023/04/29 04:46:39;;;;;;;49.67;44.37;;;;;;;;;;5080055;28;20930;-79
2023/04/29 04:49:07;;;;;;;49.53;44.40;;;;;;;;;;5080439;28;20948;-79
2023/04/29 04:51:34;;;;;;;49.57;44.27;;;;;;;;;;5080533;28;20449;-78
2023/04/29 04:54:01;;;;;;;49.43;43.97;;;;;;;;;;5081243;28;20461;-79
2023/04/29 04:56:28;;;;;;;47.97;42.80;;;;;;;;;;5080068;28;20469;-80
2023/04/29 04:58:55;;;;;;;48.87;43.97;;;;;;;;;;5081390;28;20490;-79
2023/04/29 05:01:22;;;;;;;50.87;44.20;;;;;;;;;;5080981;28;20428;-79
2023/04/29 05:03:49;;;;;;;47.43;42.40;;;;;;;;;;5080501;28;20474;-78
2023/04/29 05:06:17;;;;;;;49.90;41.87;;;;;;;;;;5080037;28;20442;-79
2023/04/29 05:08:45;;;;;;;45.73;39.57;;;;;;;;;;5079922;28;20455;-79
2023/04/29 05:11:17;;;;;;;48.67;43.27;;;;;;;;;;5080552;28;20435;-79
2023/04/29 05:13:44;;;;;;;49.00;42.17;;;;;;;;;;5080528;28;20450;-78
2023/04/29 05:16:11;;;;;;;51.20;45.40;;;;;;;;;;5079829;28;20441;-79
2023/04/29 05:18:38;;;;;;;46.70;41.67;;;;;;;;;;5079898;28;20464;-79
2023/04/29 05:21:05;;;;;;;50.33;44.60;;;;;;;;;;5079607;28;20896;-79
2023/04/29 05:23:33;;;;;;;45.33;40.40;;;;;;;;;;5080030;28;20484;-78
2023/04/29 05:26:00;;;;;;;54.57;44.70;;;;;;;;;;5079455;28;20453;-79
2023/04/29 05:28:27;;;;;;;48.80;43.60;;;;;;;;;;5079623;28;20483;-78
2023/04/29 05:30:54;;;;;;;47.77;42.70;;;;;;;;;;5079842;28;20475;-78
2023/04/29 05:33:21;;;;;;;47.50;42.47;;;;;;;;;;5078478;28;20472;-79
2023/04/29 05:35:48;;;;;;;40.13;36.17;;;;;;;;;;5079356;28;20462;-79
2023/04/29 05:38:15;;;;;;;43.37;38.83;;;;;;;;;;5079663;28;20481;-79
2023/04/29 05:40:43;;;;;;;43.20;38.80;;;;;;;;;;5080544;28;20450;-78
2023/04/29 05:43:10;;;;;;;40.60;36.60;;;;;;;;;;5079817;28;20453;-78
2023/04/29 05:45:37;;;;;;;42.20;38.03;;;;;;;;;;5079112;28;20480;-79
2023/04/29 05:48:04;;;;;;;44.63;39.77;;;;;;;;;;5079815;28;20445;-77
2023/04/29 05:50:32;;;;;;;44.93;40.37;;;;;;;;;;5080326;28;20458;-79
2023/04/29 05:52:59;;;;;;;45.00;40.37;;;;;;;;;;5079653;28;20450;-79
2023/04/29 05:55:26;;;;;;;45.67;39.57;;;;;;;;;;5080250;28;20424;-79
2023/04/29 05:57:54;;;;;;;45.63;39.50;;;;;;;;;;5079035;28;20829;-79
2023/04/29 06:00:22;;;;;;;40.73;36.63;;;;;;;;;;5079235;28;20486;-79
2023/04/29 06:02:49;;;;;;;38.50;34.67;;;;;;;;;;5079184;28;20428;-79
2023/04/29 06:05:16;;;;;;;39.37;35.30;;;;;;;;;;5079161;28;21019;-79
2023/04/29 06:07:43;;;;;;;39.03;35.23;;;;;;;;;;5079209;28;20808;-78
2023/04/29 06:10:11;;;;;;;40.77;36.77;;;;;;;;;;5079757;28;20481;-79
2023/04/29 06:12:38;;;;;;;37.53;33.70;;;;;;;;;;5079408;28;20448;-78
2023/04/29 06:15:07;;;;;;;39.13;35.10;;;;;;;;;;5079539;28;20417;-79
2023/04/29 06:17:34;;;;;;;35.43;32.13;;;;;;;;;;5078387;28;20483;-78
2023/04/29 06:20:01;;;;;;;37.40;33.50;;;;;;;;;;5079481;28;21016;-79
2023/04/29 06:22:28;;;;;;;39.07;35.20;;;;;;;;;;5080127;28;20808;-79
2023/04/29 06:24:55;;;;;;;37.73;34.13;;;;;;;;;;5079826;28;20476;-78
2023/04/29 06:27:22;;;;;;;37.83;34.20;;;;;;;;;;5083314;28;20454;-81
2023/04/29 06:29:49;;;;;;;40.13;36.03;;;;;;;;;;5084788;28;20519;-80
2023/04/29 06:32:18;;;;;;;39.10;35.30;;;;;;;;;;5084471;28;20457;-80
2023/04/29 06:34:45;;;;;;;38.90;35.20;;;;;;;;;;5083408;28;20510;-80
2023/04/29 06:37:12;;;;;;;33.37;30.43;;;;;;;;;;5083201;28;20450;-80
2023/04/29 06:39:39;;;;;;;35.37;31.97;;;;;;;;;;5082686;28;20543;-80
2023/04/29 06:42:06;;;;;;;38.80;35.20;;;;;;;;;;5082422;28;20471;-79
2023/04/29 06:44:33;;;;;;;35.67;32.20;;;;;;;;;;5080877;28;20478;-80
2023/04/29 06:47:00;;;;;;;37.63;34.03;;;;;;;;;;5081490;28;20429;-79
2023/04/29 06:49:29;;;;;;;39.90;36.20;;;;;;;;;;5080926;28;20440;-80
2023/04/29 06:51:55;;;;;;;40.50;35.80;;;;;;;;;;5081411;28;20421;-79
2023/04/29 06:54:22;;;;;;;40.00;35.80;;;;;;;;;;5080100;28;20966;-78
2023/04/29 06:56:50;;;;;;;40.27;36.07;;;;;;;;;;5080452;28;20450;-79
2023/04/29 06:59:16;;;;;;;41.30;37.37;;;;;;;;;;5081284;28;20497;-79
2023/04/29 07:01:44;;;;;;;38.17;34.20;;;;;;;;;;5080479;28;20495;-79
2023/04/29 07:04:11;;;;;;;37.90;34.17;;;;;;;;;;5080927;28;20544;-79
2023/04/29 07:06:40;;;;;;;37.83;33.90;;;;;;;;;;5080298;28;20416;-80
2023/04/29 07:09:07;;;;;;;40.20;36.70;;;;;;;;;;5080132;28;20448;-79
2023/04/29 07:11:34;;;;;;;38.83;34.93;;;;;;;;;;5079466;28;20424;-78
2023/04/29 07:14:01;;;;;;;39.27;35.50;;;;;;;;;;5077822;28;20416;-79
2023/04/29 07:16:28;;;;;;;43.33;38.63;;;;;;;;;;5074803;28;20432;-78
2023/04/29 07:18:55;;;;;;;39.10;35.50;;;;;;;;;;5077986;28;20456;-77
2023/04/29 07:21:22;;;;;;;43.27;39.03;;;;;;;;;;5077350;28;20454;-78
2023/04/29 07:23:50;;;;;;;38.50;34.77;;;;;;;;;;5076715;28;20922;-78
2023/04/29 07:26:18;;;;;;;42.80;38.67;;;;;;;;;;5079027;28;20570;-83
2023/04/29 07:28:45;;;;;;;41.73;37.63;;;;;;;;;;5081727;28;20468;-78
2023/04/29 07:31:13;;;;;;;41.77;37.23;;;;;;;;;;5080928;28;20784;-79
2023/04/29 07:33:40;;;;;;;40.10;36.33;;;;;;;;;;5080359;28;20443;-79
2023/04/29 07:36:07;;;;;;;41.67;37.47;;;;;;;;;;5078808;28;20465;-79
2023/04/29 07:38:35;;;;;;;43.50;39.17;;;;;;;;;;5079616;28;20461;-79
2023/04/29 07:41:04;;;;;;;40.43;36.50;;;;;;;;;;5079043;28;20465;-79
2023/04/29 07:43:31;;;;;;;40.20;36.30;;;;;;;;;;5079067;28;20495;-79
2023/04/29 07:45:58;;;;;;;41.10;36.73;;;;;;;;;;5077516;28;20441;-78
2023/04/29 07:48:25;;;;;;;41.43;37.23;;;;;;;;;;5077513;28;20475;-79
2023/04/29 07:50:52;;;;;;;466.95;239.27;;;;;;;;;;5077603;28;20462;-79
2023/04/29 07:53:19;;;;;;;39.57;35.70;;;;;;;;;;5077100;28;20237;-79
2023/04/29 07:55:46;;;;;;;40.97;37.13;;;;;;;;;;5076292;28;20900;-79
2023/04/29 07:58:14;;;;;;;39.30;35.33;;;;;;;;;;5077540;28;20459;-80
2023/04/29 08:00:41;;;;;;;467.50;227.50;;;;;;;;;;5076936;28;20812;-79
2023/04/29 08:03:09;;;;;;;462.92;219.48;;;;;;;;;;5077226;28;20204;-79
2023/04/29 08:05:36;;;;;;;464.25;208.90;;;;;;;;;;5076644;28;20271;-79
2023/04/29 08:08:03;;;;;;;458.33;210.27;;;;;;;;;;5077234;28;20208;-79
2023/04/29 08:10:30;;;;;;;438.38;183.77;;;;;;;;;;5076215;28;20268;-78
2023/04/29 08:12:57;;;;;;;395.13;194.38;;;;;;;;;;5076633;28;20215;-78
2023/04/29 08:15:25;;;;;;;455.17;199.15;;;;;;;;;;5081251;28;20211;-83
2023/04/29 08:17:53;;;;;;;99.63;63.28;;;;;;;;;;5092932;28;20222;-79
2023/04/29 08:20:20;;;;;;;93.90;77.17;;;;;;;;;;5091550;28;20242;-81
2023/04/29 08:22:47;;;;;;;279.25;161.73;;;;;;;;;;5087956;28;20427;-87
2023/04/29 08:25:14;;;;;;;280.40;162.20;;;;;;;;;;5080990;28;20243;-80
2023/04/29 08:27:44;;;;;;;39.27;35.67;;;;;;;;;;5078337;28;20233;-79
2023/04/29 08:30:11;;;;;;;332.05;191.25;;;;;;;;;;5080027;28;20490;-80
2023/04/29 08:32:39;;;;;;;38.23;34.63;;;;;;;;;;5080214;28;20261;-79
2023/04/29 08:35:07;;;;;;;38.20;34.63;;;;;;;;;;5080186;28;20465;-79
2023/04/29 08:37:34;;;;;;;36.20;32.77;;;;;;;;;;5079389;28;20412;-79
2023/04/29 08:40:02;;;;;;;58.90;39.30;;;;;;;;;;5079571;28;20485;-79
2023/04/29 08:42:33;;;;;;;38.20;34.40;;;;;;;;;;5078184;28;20469;-79
2023/04/29 08:45:01;;;;;;;96.28;66.38;;;;;;;;;;5076082;28;20469;-77
2023/04/29 08:47:28;;;;;;;41.13;36.93;;;;;;;;;;5074424;28;20208;-78
2023/04/29 08:49:56;;;;;;;40.83;37.23;;;;;;;;;;5074605;28;20466;-78
2023/04/29 08:52:24;;;;;;;40.30;36.90;;;;;;;;;;5075823;28;20429;-78
2023/04/29 08:54:52;;;;;;;38.57;35.27;;;;;;;;;;5076338;28;20449;-78
2023/04/29 08:57:19;;;;;;;430.13;247.45;;;;;;;;;;5076044;28;20404;-79
2023/04/29 08:59:47;;;;;;;40.47;36.77;;;;;;;;;;5074898;28;20242;-79
2023/04/29 09:02:17;;;;;;;41.07;37.37;;;;;;;;;;5075554;28;20445;-78
2023/04/29 09:04:53;;;;;;;42.63;38.53;;;;;;;;;;5077346;28;20433;-78
2023/04/29 09:07:22;;;;;;;40.27;36.50;;;;;;;;;;5074487;28;20401;-78
2023/04/29 09:09:49;;;;;;;482.58;287.75;;;;;;;;;;5077283;28;20484;-78
2023/04/29 09:12:17;;;;;;;471.15;259.83;;;;;;;;;;5078064;28;20243;-78
2023/04/29 09:14:44;;;;;;;472.58;253.45;;;;;;;;;;5079735;28;20204;-78
2023/04/29 09:17:11;;;;;;;460.98;219.75;;;;;;;;;;5079080;28;20329;-79
2023/04/29 09:19:38;;;;;;;463.52;240.98;;;;;;;;;;5078936;28;20231;-78
2023/04/29 09:22:06;;;;;;;456.08;243.88;;;;;;;;;;5078773;28;20258;-79
2023/04/29 09:24:36;;;;;;;471.50;237.52;;;;;;;;;;5080863;28;20204;-78
2023/04/29 09:27:04;;;;;;;65.30;50.30;;;;;;;;;;5081653;28;20551;-79
2023/04/29 09:29:32;;;;;;;462.27;244.52;;;;;;;;;;5081012;28;20449;-78
2023/04/29 09:31:59;;;;;;;461.27;241.88;;;;;;;;;;5081435;28;20211;-80
2023/04/29 09:34:34;;;;;;;39.87;36.47;;;;;;;;;;5081001;28;20234;-79
2023/04/29 09:37:01;;;;;;;38.03;34.73;;;;;;;;;;5080568;28;20445;-79
2023/04/29 09:39:38;;;;;;;36.93;33.63;;;;;;;;;;5081953;28;20470;-78
2023/04/29 09:42:06;;;;;;;34.90;32.10;;;;;;;;;;5082466;28;20408;-79
2023/04/29 09:44:35;;;;;;;38.17;34.80;;;;;;;;;;5081988;28;20420;-79
2023/04/29 09:47:03;;;;;;;34.87;31.90;;;;;;;;;;5081671;28;20511;-79
2023/04/29 09:49:31;;;;;;;39.13;35.93;;;;;;;;;;5081780;28;20444;-79
2023/04/29 09:51:59;;;;;;;36.37;33.37;;;;;;;;;;5082211;28;20463;-79
2023/04/29 09:54:27;;;;;;;36.97;33.77;;;;;;;;;;5081598;28;20429;-81
2023/04/29 09:56:55;;;;;;;37.37;34.17;;;;;;;;;;5080559;28;20420;-79
2023/04/29 09:59:24;;;;;;;35.37;32.57;;;;;;;;;;5082044;28;20490;-79
2023/04/29 10:01:51;;;;;;;36.20;32.90;;;;;;;;;;5082127;28;20451;-79
2023/04/29 10:04:19;;;;;;;38.30;35.13;;;;;;;;;;5082440;28;20494;-79
2023/04/29 10:06:48;;;;;;;34.67;32.07;;;;;;;;;;5081148;28;20482;-79
2023/04/29 10:09:16;;;;;;;33.43;30.83;;;;;;;;;;5079535;28;20470;-78
2023/04/29 10:11:43;;;;;;;36.67;33.23;;;;;;;;;;5079119;28;20420;-78
2023/04/29 10:14:12;;;;;;;34.03;31.17;;;;;;;;;;5078798;28;20446;-78
2023/04/29 10:16:45;;;;;;;33.93;31.37;;;;;;;;;;5078130;28;20428;-78
2023/04/29 10:19:13;;;;;;;35.93;33.10;;;;;;;;;;5078647;28;20509;-78
2023/04/29 10:21:40;;;;;;;35.57;32.90;;;;;;;;;;5080953;28;20428;-79
2023/04/29 10:24:08;;;;;;;36.97;34.10;;;;;;;;;;5080149;28;20511;-78
2023/04/29 10:26:37;;;;;;;32.93;30.13;;;;;;;;;;5083960;28;20465;-79
2023/04/29 10:29:07;;;;;;;33.23;30.83;;;;;;;;;;5083736;28;20580;-79
2023/04/29 10:31:35;;;;;;;34.27;31.67;;;;;;;;;;5083048;28;20420;-79
2023/04/29 10:34:03;;;;;;;34.47;32.07;;;;;;;;;;5082689;28;20428;-78
2023/04/29 10:36:30;;;;;;;34.67;32.10;;;;;;;;;;5080625;28;20835;-78
2023/04/29 10:38:59;;;;;;;34.60;31.87;;;;;;;;;;5080870;28;20443;-78
2023/04/29 10:41:28;;;;;;;35.30;32.50;;;;;;;;;;5080651;28;20479;-79
2023/04/29 10:43:55;;;;;;;34.17;31.27;;;;;;;;;;5080926;28;20450;-78
2023/04/29 10:46:22;;;;;;;31.00;28.83;;;;;;;;;;5081283;28;20432;-80
2023/04/29 10:48:51;;;;;;;34.67;31.87;;;;;;;;;;5080297;28;20514;-78
2023/04/29 10:51:33;;;;;;;33.13;30.53;;;;;;;;;;5079629;28;20441;-78
2023/04/29 10:54:09;;;;;;;33.17;30.47;;;;;;;;;;5079295;28;20850;-79
2023/04/29 10:56:37;;;;;;;472.77;329.10;;;;;;;;;;5080920;28;20435;-79
2023/04/29 10:59:04;;;;;;;453.88;281.17;;;;;;;;;;5081899;28;20223;-86
2023/04/29 11:01:58;;;;;;;360.83;214.43;;;;;;;;;;5081335;28;20223;-78
2023/04/29 11:04:25;;;;;;;30.87;28.70;;;;;;;;;;5044674;28;20664;-78
2023/04/29 11:06:53;;;;;;;34.00;31.27;;;;;;;;;;5081982;28;20412;-79
2023/04/29 11:09:22;;;;;;;32.53;30.03;;;;;;;;;;5080500;28;20516;-79
2023/04/29 11:11:57;;;;;;;32.03;29.63;;;;;;;;;;5079273;28;20908;-79
2023/04/29 11:14:25;;;;;;;34.23;31.70;;;;;;;;;;5079340;28;20857;-79
2023/04/29 11:16:53;;;;;;;120.93;85.00;;;;;;;;;;5079541;28;20450;-79
2023/04/29 11:19:20;;;;;;;35.83;32.60;;;;;;;;;;5079517;28;20533;-80
2023/04/29 11:21:48;;;;;;;33.70;31.10;;;;;;;;;;5080359;28;20582;-78
2023/04/29 11:24:16;;;;;;;34.07;31.27;;;;;;;;;;5080037;28;20413;-79
2023/04/29 11:26:45;;;;;;;34.60;31.80;;;;;;;;;;5079447;28;20435;-78
2023/04/29 11:29:12;;;;;;;34.40;31.70;;;;;;;;;;5078984;28;20485;-79
2023/04/29 11:31:39;;;;;;;34.37;31.87;;;;;;;;;;5079833;28;20499;-79
2023/04/29 11:34:07;;;;;;;34.83;32.17;;;;;;;;;;5078829;28;20453;-78
2023/04/29 11:36:35;;;;;;;33.83;31.33;;;;;;;;;;5078543;28;20996;-78
2023/04/29 11:39:03;;;;;;;34.73;31.90;;;;;;;;;;5078577;28;20506;-79
2023/04/29 11:41:31;;;;;;;80.70;70.90;;;;;;;;;;5078240;28;20465;-79
2023/04/29 11:44:02;;;;;;;34.97;32.17;;;;;;;;;;5079113;28;20426;-78
2023/04/29 11:46:31;;;;;;;35.57;32.67;;;;;;;;;;5077587;28;20776;-79
2023/04/29 11:49:00;;;;;;;34.80;32.00;;;;;;;;;;5076984;28;20442;-83
2023/04/29 11:51:27;;;;;;;34.73;31.87;;;;;;;;;;5063179;28;20500;-85
2023/04/29 11:53:55;;;;;;;33.83;31.20;;;;;;;;;;5077107;28;20485;-86
2023/04/29 11:56:24;;;;;;;34.33;31.63;;;;;;;;;;5071387;28;20454;-86
2023/04/29 11:58:56;;;;;;;34.30;31.30;;;;;;;;;;5058766;28;20470;-87
2023/04/29 12:01:32;;;;;;;35.07;32.20;;;;;;;;;;5054640;28;20533;-77
2023/04/29 12:04:02;;;;;;;32.50;30.00;;;;;;;;;;5053810;28;20449;-86
2023/04/29 12:06:30;;;;;;;33.30;30.60;;;;;;;;;;5055596;28;20446;-86
2023/04/29 12:09:00;;;;;;;34.47;31.87;;;;;;;;;;5053566;28;20542;-86
2023/04/29 12:11:27;;;;;;;36.07;33.17;;;;;;;;;;5055861;28;20460;-85
2023/04/29 12:13:54;;;;;;;35.03;32.33;;;;;;;;;;5058015;28;20466;-79
2023/04/29 12:16:22;;;;;;;34.70;31.90;;;;;;;;;;5058942;28;20497;-80
2023/04/29 12:18:51;;;;;;;35.60;32.70;;;;;;;;;;5058718;28;20561;-80
2023/04/29 12:21:18;;;;;;;35.33;32.67;;;;;;;;;;5058198;28;20457;-79
2023/04/29 12:23:46;;;;;;;35.60;32.90;;;;;;;;;;5057778;28;20479;-79
2023/04/29 12:26:14;;;;;;;34.63;32.10;;;;;;;;;;5057304;28;20796;-79
2023/04/29 12:28:41;;;;;;;33.73;30.83;;;;;;;;;;5058372;28;20475;-79
2023/04/29 12:31:10;;;;;;;33.30;30.60;;;;;;;;;;5057811;28;20424;-79
2023/04/29 12:33:37;;;;;;;33.00;30.43;;;;;;;;;;5059095;28;20425;-79
2023/04/29 12:36:16;;;;;;;31.67;29.33;;;;;;;;;;5061502;28;20425;-78
2023/04/29 12:38:43;;;;;;;33.07;30.67;;;;;;;;;;5057199;28;20522;-79
2023/04/29 12:41:12;;;;;;;32.63;30.13;;;;;;;;;;5057143;28;20457;-78
2023/04/29 12:43:39;;;;;;;32.77;30.37;;;;;;;;;;5059771;28;20433;-79
2023/04/29 12:46:07;;;;;;;32.97;30.33;;;;;;;;;;5061231;28;20447;-79
2023/04/29 12:48:34;;;;;;;32.13;29.33;;;;;;;;;;5061102;28;20425;-78
2023/04/29 12:51:02;;;;;;;32.73;30.07;;;;;;;;;;5061028;28;20466;-79
2023/04/29 12:53:31;;;;;;;34.20;31.80;;;;;;;;;;5060797;28;20433;-79
2023/04/29 12:55:58;;;;;;;30.20;27.90;;;;;;;;;;5059556;28;20418;-78
2023/04/29 12:58:26;;;;;;;31.77;29.37;;;;;;;;;;5060426;28;20422;-79
2023/04/29 13:00:53;;;;;;;32.53;29.60;;;;;;;;;;5060082;28;20986;-78
2023/04/29 13:03:20;;;;;;;33.00;30.23;;;;;;;;;;5061222;28;20827;-86
2023/04/29 13:05:50;;;;;;;30.87;28.60;;;;;;;;;;5061142;28;20947;-86
2023/04/29 13:08:17;;;;;;;33.40;30.47;;;;;;;;;;5071406;28;20903;-77
2023/04/29 13:10:45;;;;;;;32.20;29.60;;;;;;;;;;5059524;28;20471;-79
2023/04/29 13:13:12;;;;;;;30.47;28.13;;;;;;;;;;5060689;28;20482;-78
2023/04/29 13:15:40;;;;;;;31.53;29.17;;;;;;;;;;5055770;28;20429;-77
2023/04/29 13:18:07;;;;;;;30.83;28.63;;;;;;;;;;5056470;28;20457;-78
2023/04/29 13:20:34;;;;;;;30.97;28.93;;;;;;;;;;5055642;28;20988;-77
2023/04/29 13:23:01;;;;;;;31.80;29.43;;;;;;;;;;5056625;28;20421;-78
2023/04/29 13:25:28;;;;;;;29.43;27.23;;;;;;;;;;5055973;28;20446;-77
2023/04/29 13:27:56;;;;;;;29.43;27.23;;;;;;;;;;5057160;28;20823;-78
2023/04/29 13:30:23;;;;;;;29.57;27.47;;;;;;;;;;5055896;28;20896;-78
2023/04/29 13:32:50;;;;;;;29.60;27.40;;;;;;;;;;5056633;28;20436;-77
2023/04/29 13:35:17;;;;;;;29.33;27.20;;;;;;;;;;5056288;28;20463;-77
2023/04/29 13:37:44;;;;;;;30.70;28.60;;;;;;;;;;5055443;28;20471;-77
2023/04/29 13:40:11;;;;;;;29.90;27.57;;;;;;;;;;5055883;28;20638;-78
2023/04/29 13:42:38;;;;;;;30.50;28.30;;;;;;;;;;5056207;28;20815;-78
2023/04/29 13:45:07;;;;;;;31.43;29.13;;;;;;;;;;5056589;28;20417;-77
2023/04/29 13:47:35;;;;;;;32.63;30.13;;;;;;;;;;5055030;28;20992;-77
2023/04/29 13:50:02;;;;;;;31.60;29.07;;;;;;;;;;5056097;28;20552;-78
2023/04/29 13:52:30;;;;;;;29.97;27.77;;;;;;;;;;5056028;28;20462;-78
2023/04/29 13:54:57;;;;;;;30.80;28.60;;;;;;;;;;5057755;28;20457;-85
2023/04/29 13:57:26;;;;;;;29.73;27.73;;;;;;;;;;5058250;28;20410;-86
2023/04/29 13:59:54;;;;;;;29.07;27.07;;;;;;;;;;5058305;28;20800;-86
2023/04/29 14:02:22;;;;;;;30.77;28.47;;;;;;;;;;5057644;28;20473;-85
2023/04/29 14:04:50;;;;;;;30.43;28.13;;;;;;;;;;5058247;28;20446;-86
2023/04/29 14:07:17;;;;;;;29.47;27.13;;;;;;;;;;5058942;28;20926;-84
2023/04/29 14:09:45;;;;;;;29.30;27.30;;;;;;;;;;5058503;28;20455;-85
2023/04/29 14:12:12;;;;;;;29.73;27.50;;;;;;;;;;5058423;28;20441;-86
2023/04/29 14:14:39;;;;;;;30.07;27.87;;;;;;;;;;5058486;28;20824;-85
2023/04/29 14:17:06;;;;;;;28.67;26.67;;;;;;;;;;5068805;28;20416;-85
2023/04/29 14:19:34;;;;;;;28.90;26.60;;;;;;;;;;5078926;28;20473;-87